首页
METAR-TAF:

METAR-TAF

机场 :

士乃国际机场

新山, 马来西亚

纬度: 01-38N, 经度: 103-40E, 海拔: 37米

当前天气观测

该预报发布于16分钟前的23:00 UTC
风速2节,风向多变
温度 26°C
湿度 94%
气压 1008 hPa
能見度: 8000
少量云层高于1000英尺

METAR: WMKJ 282300Z VRB02KT 8000 FEW010 26/25 Q1008

时间: 07:16 (23:16 UTC)

预报

该预报发布于6小时和16分钟前的17:00 UTC
预报有效从28日的 18点(UTC)到 29日的 18点(UTC)
风速2节,风向多变
能见度10公里或以上
少量云层高于2200英尺
几率 30% :
短暂存在
从 29日的 07点(UTC)到 29日的 11点(UTC)
能見度: 4000
少量云层高于1700英尺, 积雨云.
散云层高于2000英尺
雷暴, 雨,

TAF: WMKJ 281700Z 2818/2918 VRB02KT 9999 FEW022 PROB30 TEMPO 2907/2911 4000 TSRA FEW017CB SCT020

超过4000个机场的气象观测和天气预报(METAR&TAF报告)。

可查询的气象台以黄色和红色小点在地图上表示。

将鼠标移到小点上方,可查看气象台名称。

然后点击查看天气观测和预报。

如需切换地图:点击带黑十字的绿色按钮放大地图;点击带横线的绿色按钮缩小地图;或者点击绿色箭头查看邻近地区的地图。


METAR-TAF: